sensor_id;sensor_type;location;lat;lon;timestamp;noise_LAeq;noise_LA_min;noise_LA_max;noise_LA01;noise_LA95
73638;Laerm;53743;51.100;5.874;2023-05-29T00:00:19;34.94;29.91;47.12;;
73638;Laerm;53743;51.100;5.874;2023-05-29T00:01:21;54.20;30.30;69.82;;
73638;Laerm;53743;51.100;5.874;2023-05-29T00:02:24;52.91;30.56;67.07;;
73638;Laerm;53743;51.100;5.874;2023-05-29T00:03:25;57.54;30.71;73.11;;
73638;Laerm;53743;51.100;5.874;2023-05-29T00:04:27;53.19;30.00;68.39;;
73638;Laerm;53743;51.100;5.874;2023-05-29T00:05:28;31.71;29.21;40.86;;
73638;Laerm;53743;51.100;5.874;2023-05-29T00:06:30;31.91;29.50;38.75;;
73638;Laerm;53743;51.100;5.874;2023-05-29T00:07:32;56.03;30.18;71.76;;
73638;Laerm;53743;51.100;5.874;2023-05-29T00:08:34;32.52;29.55;35.37;;
73638;Laerm;53743;51.100;5.874;2023-05-29T00:09:35;55.78;29.97;72.21;;
73638;Laerm;53743;51.100;5.874;2023-05-29T00:10:37;32.32;29.94;38.16;;
73638;Laerm;53743;51.100;5.874;2023-05-29T00:11:39;56.15;29.92;72.34;;
73638;Laerm;53743;51.100;5.874;2023-05-29T00:12:41;49.20;29.38;65.86;;
73638;Laerm;53743;51.100;5.874;2023-05-29T00:13:42;33.06;29.75;44.32;;
73638;Laerm;53743;51.100;5.874;2023-05-29T00:14:44;33.88;30.52;38.02;;
73638;Laerm;53743;51.100;5.874;2023-05-29T00:15:45;37.40;29.70;55.66;;
73638;Laerm;53743;51.100;5.874;2023-05-29T00:16:48;56.62;31.28;72.59;;
73638;Laerm;53743;51.100;5.874;2023-05-29T00:17:50;34.20;30.14;40.90;;
73638;Laerm;53743;51.100;5.874;2023-05-29T00:18:53;32.13;29.50;45.76;;
73638;Laerm;53743;51.100;5.874;2023-05-29T00:19:54;32.22;29.43;50.41;;
73638;Laerm;53743;51.100;5.874;2023-05-29T00:20:56;60.39;30.85;77.89;;
73638;Laerm;53743;51.100;5.874;2023-05-29T00:21:57;31.84;29.24;44.98;;
73638;Laerm;53743;51.100;5.874;2023-05-29T00:22:59;34.29;29.57;40.07;;
73638;Laerm;53743;51.100;5.874;2023-05-29T00:24:00;31.86;29.38;38.80;;
73638;Laerm;53743;51.100;5.874;2023-05-29T00:25:02;30.99;29.01;33.95;;
73638;Laerm;53743;51.100;5.874;2023-05-29T00:26:04;30.91;28.71;35.52;;
73638;Laerm;53743;51.100;5.874;2023-05-29T00:27:07;31.39;29.05;39.79;;
73638;Laerm;53743;51.100;5.874;2023-05-29T00:28:09;31.40;28.99;42.86;;
73638;Laerm;53743;51.100;5.874;2023-05-29T00:29:12;31.05;29.10;34.69;;
73638;Laerm;53743;51.100;5.874;2023-05-29T00:30:14;31.89;29.17;38.88;;
73638;Laerm;53743;51.100;5.874;2023-05-29T00:31:16;31.84;29.90;34.11;;
73638;Laerm;53743;51.100;5.874;2023-05-29T00:32:17;57.14;30.69;70.01;;
73638;Laerm;53743;51.100;5.874;2023-05-29T00:33:19;34.90;30.16;44.53;;
73638;Laerm;53743;51.100;5.874;2023-05-29T00:34:22;52.98;29.16;67.16;;
73638;Laerm;53743;51.100;5.874;2023-05-29T00:35:26;33.31;29.36;50.89;;
73638;Laerm;53743;51.100;5.874;2023-05-29T00:36:27;39.14;29.36;56.34;;
73638;Laerm;53743;51.100;5.874;2023-05-29T00:37:30;56.47;29.42;72.21;;
73638;Laerm;53743;51.100;5.874;2023-05-29T00:38:31;31.03;29.18;40.15;;
73638;Laerm;53743;51.100;5.874;2023-05-29T00:39:33;30.72;28.83;33.26;;
73638;Laerm;53743;51.100;5.874;2023-05-29T00:40:34;30.67;28.47;34.01;;
73638;Laerm;53743;51.100;5.874;2023-05-29T00:41:35;30.77;28.81;50.80;;
73638;Laerm;53743;51.100;5.874;2023-05-29T00:42:38;33.05;29.10;42.77;;
73638;Laerm;53743;51.100;5.874;2023-05-29T00:43:40;32.91;29.98;40.26;;
73638;Laerm;53743;51.100;5.874;2023-05-29T00:44:41;55.55;29.02;70.74;;
73638;Laerm;53743;51.100;5.874;2023-05-29T00:45:43;39.74;29.42;56.22;;
73638;Laerm;53743;51.100;5.874;2023-05-29T00:46:45;54.23;30.82;69.20;;
73638;Laerm;53743;51.100;5.874;2023-05-29T00:47:48;54.04;29.24;69.86;;
73638;Laerm;53743;51.100;5.874;2023-05-29T00:48:50;30.69;28.44;46.16;;
73638;Laerm;53743;51.100;5.874;2023-05-29T00:49:53;55.19;29.85;71.00;;
73638;Laerm;53743;51.100;5.874;2023-05-29T00:50:54;37.47;29.28;52.86;;
73638;Laerm;53743;51.100;5.874;2023-05-29T00:51:57;31.53;29.28;45.57;;
73638;Laerm;53743;51.100;5.874;2023-05-29T00:53:00;31.02;28.98;33.92;;
73638;Laerm;53743;51.100;5.874;2023-05-29T00:54:06;30.72;29.15;33.48;;
73638;Laerm;53743;51.100;5.874;2023-05-29T00:55:09;30.68;29.05;33.75;;
73638;Laerm;53743;51.100;5.874;2023-05-29T00:56:12;30.76;28.54;42.70;;
73638;Laerm;53743;51.100;5.874;2023-05-29T00:57:16;55.69;29.39;74.12;;
73638;Laerm;53743;51.100;5.874;2023-05-29T00:58:21;30.88;28.94;33.42;;
73638;Laerm;53743;51.100;5.874;2023-05-29T00:59:22;30.98;29.08;33.98;;
73638;Laerm;53743;51.100;5.874;2023-05-29T01:00:24;31.39;28.91;39.95;;
73638;Laerm;53743;51.100;5.874;2023-05-29T01:01:26;33.33;29.60;51.73;;
73638;Laerm;53743;51.100;5.874;2023-05-29T01:02:29;31.39;29.22;39.10;;
73638;Laerm;53743;51.100;5.874;2023-05-29T01:03:31;58.08;29.35;73.54;;
73638;Laerm;53743;51.100;5.874;2023-05-29T01:04:34;33.73;29.42;44.15;;
73638;Laerm;53743;51.100;5.874;2023-05-29T01:05:35;32.46;29.92;38.69;;
73638;Laerm;53743;51.100;5.874;2023-05-29T01:06:39;34.18;30.46;39.79;;
73638;Laerm;53743;51.100;5.874;2023-05-29T01:07:41;32.94;30.39;40.46;;
73638;Laerm;53743;51.100;5.874;2023-05-29T01:08:43;31.78;29.67;39.79;;
73638;Laerm;53743;51.100;5.874;2023-05-29T01:11:08;31.92;29.48;41.26;;
73638;Laerm;53743;51.100;5.874;2023-05-29T01:12:30;30.95;28.84;40.59;;
73638;Laerm;53743;51.100;5.874;2023-05-29T01:13:40;51.63;29.01;67.37;;
73638;Laerm;53743;51.100;5.874;2023-05-29T01:15:01;34.51;31.08;40.48;;
73638;Laerm;53743;51.100;5.874;2023-05-29T01:16:21;32.86;29.95;42.41;;
73638;Laerm;53743;51.100;5.874;2023-05-29T01:17:40;32.31;30.07;36.56;;
73638;Laerm;53743;51.100;5.874;2023-05-29T01:18:53;31.75;29.43;35.21;;
73638;Laerm;53743;51.100;5.874;2023-05-29T01:20:15;32.04;29.04;38.34;;
73638;Laerm;53743;51.100;5.874;2023-05-29T01:21:38;31.45;29.44;37.10;;
73638;Laerm;53743;51.100;5.874;2023-05-29T01:23:07;54.68;29.62;70.88;;
73638;Laerm;53743;51.100;5.874;2023-05-29T01:24:26;41.53;29.36;57.84;;
73638;Laerm;53743;51.100;5.874;2023-05-29T01:26:07;33.90;30.16;42.21;;
73638;Laerm;53743;51.100;5.874;2023-05-29T01:27:18;42.95;29.73;59.38;;
73638;Laerm;53743;51.100;5.874;2023-05-29T01:28:28;54.80;29.82;70.07;;
73638;Laerm;53743;51.100;5.874;2023-05-29T01:29:34;32.83;29.99;44.87;;
73638;Laerm;53743;51.100;5.874;2023-05-29T01:30:41;30.99;28.94;35.82;;
73638;Laerm;53743;51.100;5.874;2023-05-29T01:31:45;33.24;29.85;36.97;;
73638;Laerm;53743;51.100;5.874;2023-05-29T01:32:48;33.17;30.86;36.60;;
73638;Laerm;53743;51.100;5.874;2023-05-29T01:33:56;34.44;30.21;47.38;;
73638;Laerm;53743;51.100;5.874;2023-05-29T01:34:59;35.07;31.31;48.40;;
73638;Laerm;53743;51.100;5.874;2023-05-29T01:36:01;33.43;30.37;40.57;;
73638;Laerm;53743;51.100;5.874;2023-05-29T01:37:02;32.24;28.82;40.21;;
73638;Laerm;53743;51.100;5.874;2023-05-29T01:38:04;30.60;28.61;33.48;;
73638;Laerm;53743;51.100;5.874;2023-05-29T01:39:06;30.87;29.01;34.31;;
73638;Laerm;53743;51.100;5.874;2023-05-29T01:40:10;31.43;29.24;35.52;;
73638;Laerm;53743;51.100;5.874;2023-05-29T01:41:11;32.21;29.94;47.07;;
73638;Laerm;53743;51.100;5.874;2023-05-29T01:42:16;32.87;30.11;37.98;;
73638;Laerm;53743;51.100;5.874;2023-05-29T01:43:17;32.22;30.03;36.53;;
73638;Laerm;53743;51.100;5.874;2023-05-29T01:44:22;32.12;30.20;34.68;;
73638;Laerm;53743;51.100;5.874;2023-05-29T01:45:25;33.78;30.30;43.21;;
73638;Laerm;53743;51.100;5.874;2023-05-29T01:46:27;34.00;30.96;41.99;;
73638;Laerm;53743;51.100;5.874;2023-05-29T01:47:28;33.41;29.97;39.28;;
73638;Laerm;53743;51.100;5.874;2023-05-29T01:48:30;35.62;31.06;41.17;;
73638;Laerm;53743;51.100;5.874;2023-05-29T01:49:31;32.77;29.53;39.44;;
73638;Laerm;53743;51.100;5.874;2023-05-29T01:50:36;32.63;29.73;38.68;;
73638;Laerm;53743;51.100;5.874;2023-05-29T01:51:38;33.90;29.89;45.01;;
73638;Laerm;53743;51.100;5.874;2023-05-29T01:52:41;33.22;29.69;39.30;;
73638;Laerm;53743;51.100;5.874;2023-05-29T01:53:43;31.15;29.03;41.77;;
73638;Laerm;53743;51.100;5.874;2023-05-29T01:54:46;32.43;29.92;35.64;;
73638;Laerm;53743;51.100;5.874;2023-05-29T01:55:49;32.63;29.56;49.26;;
73638;Laerm;53743;51.100;5.874;2023-05-29T01:56:51;35.01;29.89;44.29;;
73638;Laerm;53743;51.100;5.874;2023-05-29T01:57:56;33.38;29.23;41.30;;
73638;Laerm;53743;51.100;5.874;2023-05-29T01:59:00;32.96;29.85;38.72;;
73638;Laerm;53743;51.100;5.874;2023-05-29T02:00:05;32.63;29.74;37.13;;
73638;Laerm;53743;51.100;5.874;2023-05-29T02:01:15;34.25;31.05;41.03;;
73638;Laerm;53743;51.100;5.874;2023-05-29T02:02:17;35.94;30.51;47.86;;
73638;Laerm;53743;51.100;5.874;2023-05-29T02:03:18;33.04;29.88;51.07;;
73638;Laerm;53743;51.100;5.874;2023-05-29T02:04:20;31.45;29.02;37.07;;
73638;Laerm;53743;51.100;5.874;2023-05-29T02:05:21;33.27;29.88;45.98;;
73638;Laerm;53743;51.100;5.874;2023-05-29T02:06:23;39.53;31.98;57.57;;
73638;Laerm;53743;51.100;5.874;2023-05-29T02:07:24;39.88;31.52;62.63;;
73638;Laerm;53743;51.100;5.874;2023-05-29T02:08:27;34.21;30.35;50.47;;
73638;Laerm;53743;51.100;5.874;2023-05-29T02:09:28;31.71;29.09;39.65;;
73638;Laerm;53743;51.100;5.874;2023-05-29T02:10:31;34.09;30.05;45.56;;
73638;Laerm;53743;51.100;5.874;2023-05-29T02:11:33;38.91;31.60;62.08;;
73638;Laerm;53743;51.100;5.874;2023-05-29T02:12:34;37.87;31.78;45.73;;
73638;Laerm;53743;51.100;5.874;2023-05-29T02:13:37;33.88;30.53;40.08;;
73638;Laerm;53743;51.100;5.874;2023-05-29T02:14:39;32.13;29.38;39.05;;
73638;Laerm;53743;51.100;5.874;2023-05-29T02:15:41;31.59;29.51;37.83;;
73638;Laerm;53743;51.100;5.874;2023-05-29T02:16:44;43.70;29.38;56.48;;
73638;Laerm;53743;51.100;5.874;2023-05-29T02:17:45;45.15;29.28;60.76;;
73638;Laerm;53743;51.100;5.874;2023-05-29T02:18:47;41.10;32.52;56.65;;
73638;Laerm;53743;51.100;5.874;2023-05-29T02:19:48;36.80;30.61;47.30;;
73638;Laerm;53743;51.100;5.874;2023-05-29T02:20:51;42.70;30.85;56.55;;
73638;Laerm;53743;51.100;5.874;2023-05-29T02:21:56;44.65;29.49;60.53;;
73638;Laerm;53743;51.100;5.874;2023-05-29T02:22:57;44.44;30.13;58.12;;
73638;Laerm;53743;51.100;5.874;2023-05-29T02:23:59;45.49;30.78;58.07;;
73638;Laerm;53743;51.100;5.874;2023-05-29T02:25:01;57.20;32.55;71.73;;
73638;Laerm;53743;51.100;5.874;2023-05-29T02:26:02;45.83;31.96;60.33;;
73638;Laerm;53743;51.100;5.874;2023-05-29T02:27:04;46.34;31.14;58.89;;
73638;Laerm;53743;51.100;5.874;2023-05-29T02:28:06;44.57;31.82;57.22;;
73638;Laerm;53743;51.100;5.874;2023-05-29T02:29:09;47.06;32.57;59.10;;
73638;Laerm;53743;51.100;5.874;2023-05-29T02:30:11;46.47;31.33;61.41;;
73638;Laerm;53743;51.100;5.874;2023-05-29T02:31:15;43.10;31.22;57.97;;
73638;Laerm;53743;51.100;5.874;2023-05-29T02:32:16;39.53;32.88;51.02;;
73638;Laerm;53743;51.100;5.874;2023-05-29T02:33:18;40.47;31.36;55.12;;
73638;Laerm;53743;51.100;5.874;2023-05-29T02:34:19;40.97;31.61;55.70;;
73638;Laerm;53743;51.100;5.874;2023-05-29T02:35:23;40.36;31.78;52.76;;
73638;Laerm;53743;51.100;5.874;2023-05-29T02:36:24;40.35;31.86;54.73;;
73638;Laerm;53743;51.100;5.874;2023-05-29T02:37:26;61.71;32.62;76.23;;
73638;Laerm;53743;51.100;5.874;2023-05-29T02:38:27;44.47;32.76;54.32;;
73638;Laerm;53743;51.100;5.874;2023-05-29T02:39:29;42.78;32.66;59.25;;
73638;Laerm;53743;51.100;5.874;2023-05-29T02:40:30;45.30;33.16;58.78;;
73638;Laerm;53743;51.100;5.874;2023-05-29T02:41:32;45.51;33.26;60.66;;
73638;Laerm;53743;51.100;5.874;2023-05-29T02:42:34;45.00;33.36;57.35;;
73638;Laerm;53743;51.100;5.874;2023-05-29T02:43:38;57.05;33.58;72.63;;
73638;Laerm;53743;51.100;5.874;2023-05-29T02:44:40;53.98;33.54;70.53;;
73638;Laerm;53743;51.100;5.874;2023-05-29T02:45:42;45.70;32.01;59.14;;
73638;Laerm;53743;51.100;5.874;2023-05-29T02:46:43;45.21;31.60;57.38;;
73638;Laerm;53743;51.100;5.874;2023-05-29T02:47:45;45.20;31.90;57.37;;
73638;Laerm;53743;51.100;5.874;2023-05-29T02:48:47;44.92;32.01;57.94;;
73638;Laerm;53743;51.100;5.874;2023-05-29T02:49:49;44.37;31.82;56.60;;
73638;Laerm;53743;51.100;5.874;2023-05-29T02:50:51;42.48;32.05;58.96;;
73638;Laerm;53743;51.100;5.874;2023-05-29T02:51:53;39.98;31.34;52.56;;
73638;Laerm;53743;51.100;5.874;2023-05-29T02:52:57;37.64;31.70;52.43;;
73638;Laerm;53743;51.100;5.874;2023-05-29T02:53:59;39.75;31.74;53.96;;
73638;Laerm;53743;51.100;5.874;2023-05-29T02:55:00;35.54;31.58;42.79;;
73638;Laerm;53743;51.100;5.874;2023-05-29T02:56:03;35.68;30.79;48.17;;
73638;Laerm;53743;51.100;5.874;2023-05-29T02:57:05;36.36;31.42;45.20;;
73638;Laerm;53743;51.100;5.874;2023-05-29T02:58:06;39.63;31.56;51.19;;
73638;Laerm;53743;51.100;5.874;2023-05-29T02:59:08;39.56;31.48;53.28;;
73638;Laerm;53743;51.100;5.874;2023-05-29T03:00:13;52.61;31.07;68.86;;
73638;Laerm;53743;51.100;5.874;2023-05-29T03:01:14;38.61;30.89;53.53;;
73638;Laerm;53743;51.100;5.874;2023-05-29T03:02:16;35.15;30.49;43.37;;
73638;Laerm;53743;51.100;5.874;2023-05-29T03:03:17;38.02;31.25;54.09;;
73638;Laerm;53743;51.100;5.874;2023-05-29T03:04:19;36.68;31.45;45.95;;
73638;Laerm;53743;51.100;5.874;2023-05-29T03:05:21;36.75;31.45;49.11;;
73638;Laerm;53743;51.100;5.874;2023-05-29T03:06:23;34.66;31.58;47.20;;
73638;Laerm;53743;51.100;5.874;2023-05-29T03:07:23;34.39;30.36;40.07;;
73638;Laerm;53743;51.100;5.874;2023-05-29T03:08:26;34.58;30.59;50.05;;
73638;Laerm;53743;51.100;5.874;2023-05-29T03:09:28;36.96;30.58;52.53;;
73638;Laerm;53743;51.100;5.874;2023-05-29T03:10:31;36.50;31.52;46.04;;
73638;Laerm;53743;51.100;5.874;2023-05-29T03:11:33;57.89;31.67;75.47;;
73638;Laerm;53743;51.100;5.874;2023-05-29T03:12:37;37.97;31.87;49.83;;
73638;Laerm;53743;51.100;5.874;2023-05-29T03:13:40;39.56;30.99;50.68;;
73638;Laerm;53743;51.100;5.874;2023-05-29T03:14:43;41.17;31.27;50.14;;
73638;Laerm;53743;51.100;5.874;2023-05-29T03:15:48;42.11;32.13;56.45;;
73638;Laerm;53743;51.100;5.874;2023-05-29T03:16:51;42.15;30.81;52.10;;
73638;Laerm;53743;51.100;5.874;2023-05-29T03:17:53;43.78;30.56;59.69;;
73638;Laerm;53743;51.100;5.874;2023-05-29T03:19:00;45.16;30.89;59.94;;
73638;Laerm;53743;51.100;5.874;2023-05-29T03:20:02;42.26;30.57;58.07;;
73638;Laerm;53743;51.100;5.874;2023-05-29T03:21:06;41.41;30.94;52.02;;
73638;Laerm;53743;51.100;5.874;2023-05-29T03:22:08;60.62;31.73;74.52;;
73638;Laerm;53743;51.100;5.874;2023-05-29T03:23:11;38.10;30.01;50.12;;
73638;Laerm;53743;51.100;5.874;2023-05-29T03:24:12;37.46;30.48;53.48;;
73638;Laerm;53743;51.100;5.874;2023-05-29T03:25:16;38.21;30.58;51.46;;
73638;Laerm;53743;51.100;5.874;2023-05-29T03:26:18;37.10;30.62;51.01;;
73638;Laerm;53743;51.100;5.874;2023-05-29T03:27:22;36.28;30.07;50.00;;
73638;Laerm;53743;51.100;5.874;2023-05-29T03:28:32;36.66;30.37;50.73;;
73638;Laerm;53743;51.100;5.874;2023-05-29T03:29:37;40.64;32.46;52.00;;
73638;Laerm;53743;51.100;5.874;2023-05-29T03:30:38;39.70;30.79;53.78;;
73638;Laerm;53743;51.100;5.874;2023-05-29T03:31:42;56.95;32.32;71.84;;
73638;Laerm;53743;51.100;5.874;2023-05-29T03:32:43;37.79;30.82;51.85;;
73638;Laerm;53743;51.100;5.874;2023-05-29T03:33:45;37.52;31.16;53.81;;
73638;Laerm;53743;51.100;5.874;2023-05-29T03:34:56;37.68;30.98;51.20;;
73638;Laerm;53743;51.100;5.874;2023-05-29T03:35:58;40.59;31.53;61.30;;
73638;Laerm;53743;51.100;5.874;2023-05-29T03:37:00;38.14;31.41;50.62;;
73638;Laerm;53743;51.100;5.874;2023-05-29T03:38:03;56.80;32.25;71.70;;
73638;Laerm;53743;51.100;5.874;2023-05-29T03:39:05;56.40;30.92;73.94;;
73638;Laerm;53743;51.100;5.874;2023-05-29T03:40:08;45.26;30.75;71.77;;
73638;Laerm;53743;51.100;5.874;2023-05-29T03:41:10;37.30;29.87;45.62;;
73638;Laerm;53743;51.100;5.874;2023-05-29T03:42:13;37.77;30.67;51.23;;
73638;Laerm;53743;51.100;5.874;2023-05-29T03:43:14;37.38;29.87;47.66;;
73638;Laerm;53743;51.100;5.874;2023-05-29T03:44:17;40.62;31.27;54.74;;
73638;Laerm;53743;51.100;5.874;2023-05-29T03:45:18;45.02;30.63;58.93;;
73638;Laerm;53743;51.100;5.874;2023-05-29T03:46:20;45.58;30.80;62.79;;
73638;Laerm;53743;51.100;5.874;2023-05-29T03:47:22;45.09;31.17;59.91;;
73638;Laerm;53743;51.100;5.874;2023-05-29T03:48:26;40.57;31.99;55.95;;
73638;Laerm;53743;51.100;5.874;2023-05-29T03:49:27;55.66;32.25;73.53;;
73638;Laerm;53743;51.100;5.874;2023-05-29T03:50:29;40.55;31.25;56.16;;
73638;Laerm;53743;51.100;5.874;2023-05-29T03:51:30;41.20;31.44;53.69;;
73638;Laerm;53743;51.100;5.874;2023-05-29T03:52:32;41.25;30.87;63.11;;
73638;Laerm;53743;51.100;5.874;2023-05-29T03:53:34;38.10;31.46;55.61;;
73638;Laerm;53743;51.100;5.874;2023-05-29T03:54:36;39.62;31.09;53.26;;
73638;Laerm;53743;51.100;5.874;2023-05-29T03:55:38;38.63;31.60;49.02;;
73638;Laerm;53743;51.100;5.874;2023-05-29T03:56:42;43.18;32.07;60.26;;
73638;Laerm;53743;51.100;5.874;2023-05-29T03:57:46;42.14;31.23;60.50;;
73638;Laerm;53743;51.100;5.874;2023-05-29T03:58:48;45.42;33.04;62.68;;
73638;Laerm;53743;51.100;5.874;2023-05-29T03:59:50;39.52;32.05;57.93;;
73638;Laerm;53743;51.100;5.874;2023-05-29T04:00:51;38.25;31.51;55.22;;
73638;Laerm;53743;51.100;5.874;2023-05-29T04:01:55;38.79;31.17;59.12;;
73638;Laerm;53743;51.100;5.874;2023-05-29T04:02:57;39.73;30.52;50.07;;
73638;Laerm;53743;51.100;5.874;2023-05-29T04:03:59;56.12;33.03;70.78;;
73638;Laerm;53743;51.100;5.874;2023-05-29T04:05:01;55.67;31.50;71.29;;
73638;Laerm;53743;51.100;5.874;2023-05-29T04:06:03;55.63;32.28;69.23;;
73638;Laerm;53743;51.100;5.874;2023-05-29T04:07:04;42.99;32.38;53.13;;
73638;Laerm;53743;51.100;5.874;2023-05-29T04:08:07;53.69;32.15;69.93;;
73638;Laerm;53743;51.100;5.874;2023-05-29T04:09:09;47.66;31.68;67.98;;
73638;Laerm;53743;51.100;5.874;2023-05-29T04:10:12;43.03;31.16;56.42;;
73638;Laerm;53743;51.100;5.874;2023-05-29T04:11:13;55.39;31.17;69.99;;
73638;Laerm;53743;51.100;5.874;2023-05-29T04:12:15;54.58;31.38;68.77;;
73638;Laerm;53743;51.100;5.874;2023-05-29T04:13:17;36.50;31.30;51.76;;
73638;Laerm;53743;51.100;5.874;2023-05-29T04:14:19;57.36;31.34;70.82;;
73638;Laerm;53743;51.100;5.874;2023-05-29T04:15:21;51.94;32.39;65.93;;
73638;Laerm;53743;51.100;5.874;2023-05-29T04:16:22;37.42;31.54;52.25;;
73638;Laerm;53743;51.100;5.874;2023-05-29T04:17:24;36.60;31.08;51.81;;
73638;Laerm;53743;51.100;5.874;2023-05-29T04:18:27;57.29;31.91;72.77;;
73638;Laerm;53743;51.100;5.874;2023-05-29T04:19:29;35.95;31.04;52.77;;
73638;Laerm;53743;51.100;5.874;2023-05-29T04:20:30;53.18;32.16;68.43;;
73638;Laerm;53743;51.100;5.874;2023-05-29T04:21:32;40.43;31.84;62.28;;
73638;Laerm;53743;51.100;5.874;2023-05-29T04:22:35;56.75;32.26;71.28;;
73638;Laerm;53743;51.100;5.874;2023-05-29T04:23:37;58.59;31.31;71.58;;
73638;Laerm;53743;51.100;5.874;2023-05-29T04:24:39;55.83;32.85;70.13;;
73638;Laerm;53743;51.100;5.874;2023-05-29T04:25:42;54.19;33.40;68.42;;
73638;Laerm;53743;51.100;5.874;2023-05-29T04:26:44;37.62;31.26;59.48;;
73638;Laerm;53743;51.100;5.874;2023-05-29T04:27:47;58.58;32.85;72.76;;
73638;Laerm;53743;51.100;5.874;2023-05-29T04:28:51;38.79;31.30;62.47;;
73638;Laerm;53743;51.100;5.874;2023-05-29T04:29:58;46.97;31.28;67.20;;
73638;Laerm;53743;51.100;5.874;2023-05-29T04:31:05;55.00;31.60;69.00;;
73638;Laerm;53743;51.100;5.874;2023-05-29T04:32:08;55.31;32.58;70.10;;
73638;Laerm;53743;51.100;5.874;2023-05-29T04:33:10;58.06;31.18;74.57;;
73638;Laerm;53743;51.100;5.874;2023-05-29T04:34:17;52.63;32.20;67.15;;
73638;Laerm;53743;51.100;5.874;2023-05-29T04:35:19;36.84;31.54;49.14;;
73638;Laerm;53743;51.100;5.874;2023-05-29T04:36:32;54.31;33.19;72.79;;
73638;Laerm;53743;51.100;5.874;2023-05-29T04:37:42;59.80;34.60;74.15;;
73638;Laerm;53743;51.100;5.874;2023-05-29T04:38:45;59.64;34.06;74.92;;
73638;Laerm;53743;51.100;5.874;2023-05-29T04:39:48;39.06;33.36;54.01;;
73638;Laerm;53743;51.100;5.874;2023-05-29T04:40:57;60.55;35.06;74.83;;
73638;Laerm;53743;51.100;5.874;2023-05-29T04:41:59;57.86;36.54;72.51;;
73638;Laerm;53743;51.100;5.874;2023-05-29T04:43:02;39.10;33.49;50.78;;
73638;Laerm;53743;51.100;5.874;2023-05-29T04:44:18;55.50;33.34;74.13;;
73638;Laerm;53743;51.100;5.874;2023-05-29T04:45:23;43.04;31.76;57.19;;
73638;Laerm;53743;51.100;5.874;2023-05-29T04:46:26;42.07;32.47;61.55;;
73638;Laerm;53743;51.100;5.874;2023-05-29T04:47:28;57.97;33.85;74.14;;
73638;Laerm;53743;51.100;5.874;2023-05-29T04:48:29;61.32;35.17;73.93;;
73638;Laerm;53743;51.100;5.874;2023-05-29T04:49:33;59.48;33.32;73.91;;
73638;Laerm;53743;51.100;5.874;2023-05-29T04:50:34;60.61;35.33;75.74;;
73638;Laerm;53743;51.100;5.874;2023-05-29T04:51:37;42.31;32.05;69.13;;
73638;Laerm;53743;51.100;5.874;2023-05-29T04:52:41;59.04;33.15;75.62;;
73638;Laerm;53743;51.100;5.874;2023-05-29T04:53:45;54.45;31.51;69.43;;
73638;Laerm;53743;51.100;5.874;2023-05-29T04:54:48;59.98;33.14;72.38;;
73638;Laerm;53743;51.100;5.874;2023-05-29T04:55:50;57.67;32.49;73.24;;
73638;Laerm;53743;51.100;5.874;2023-05-29T04:56:53;54.16;30.84;69.56;;
73638;Laerm;53743;51.100;5.874;2023-05-29T04:57:58;58.35;29.98;73.81;;
73638;Laerm;53743;51.100;5.874;2023-05-29T04:59:01;34.11;30.54;43.88;;
73638;Laerm;53743;51.100;5.874;2023-05-29T05:00:05;57.23;33.36;71.77;;
73638;Laerm;53743;51.100;5.874;2023-05-29T05:01:11;36.65;30.95;47.92;;
73638;Laerm;53743;51.100;5.874;2023-05-29T05:02:14;55.85;34.98;71.96;;
73638;Laerm;53743;51.100;5.874;2023-05-29T05:03:16;41.59;35.09;58.10;;
73638;Laerm;53743;51.100;5.874;2023-05-29T05:04:18;59.76;35.19;74.71;;
73638;Laerm;53743;51.100;5.874;2023-05-29T05:05:21;38.83;33.66;53.97;;
73638;Laerm;53743;51.100;5.874;2023-05-29T05:06:28;63.35;39.34;79.32;;
73638;Laerm;53743;51.100;5.874;2023-05-29T05:07:29;62.63;33.54;80.63;;
73638;Laerm;53743;51.100;5.874;2023-05-29T05:08:31;60.94;33.82;75.25;;
73638;Laerm;53743;51.100;5.874;2023-05-29T05:09:34;62.09;39.14;75.42;;
73638;Laerm;53743;51.100;5.874;2023-05-29T05:10:37;59.39;33.23;72.51;;
73638;Laerm;53743;51.100;5.874;2023-05-29T05:11:39;57.47;32.67;72.60;;
73638;Laerm;53743;51.100;5.874;2023-05-29T05:12:41;37.16;32.42;53.50;;
73638;Laerm;53743;51.100;5.874;2023-05-29T05:13:44;53.18;32.97;70.33;;
73638;Laerm;53743;51.100;5.874;2023-05-29T05:14:46;59.49;32.37;77.93;;
73638;Laerm;53743;51.100;5.874;2023-05-29T05:15:48;61.17;33.48;74.48;;
73638;Laerm;53743;51.100;5.874;2023-05-29T05:16:49;59.85;34.60;72.61;;
73638;Laerm;53743;51.100;5.874;2023-05-29T05:17:51;54.05;32.18;71.83;;
73638;Laerm;53743;51.100;5.874;2023-05-29T05:18:52;52.38;32.64;71.05;;
73638;Laerm;53743;51.100;5.874;2023-05-29T05:19:54;61.69;40.21;75.39;;
73638;Laerm;53743;51.100;5.874;2023-05-29T05:20:58;52.20;32.28;68.22;;
73638;Laerm;53743;51.100;5.874;2023-05-29T05:22:00;55.98;31.87;71.26;;
73638;Laerm;53743;51.100;5.874;2023-05-29T05:23:01;55.77;34.61;71.84;;
73638;Laerm;53743;51.100;5.874;2023-05-29T05:24:04;53.75;34.66;69.82;;
73638;Laerm;53743;51.100;5.874;2023-05-29T05:25:06;56.21;34.27;72.45;;
73638;Laerm;53743;51.100;5.874;2023-05-29T05:26:08;43.10;31.93;60.73;;
73638;Laerm;53743;51.100;5.874;2023-05-29T05:27:10;46.20;33.21;63.51;;
73638;Laerm;53743;51.100;5.874;2023-05-29T05:28:13;57.38;32.46;73.29;;
73638;Laerm;53743;51.100;5.874;2023-05-29T05:29:14;61.80;35.27;74.51;;
73638;Laerm;53743;51.100;5.874;2023-05-29T05:30:16;62.50;36.75;74.60;;
73638;Laerm;53743;51.100;5.874;2023-05-29T05:31:18;46.38;32.80;60.33;;
73638;Laerm;53743;51.100;5.874;2023-05-29T05:32:20;39.93;33.86;53.04;;
73638;Laerm;53743;51.100;5.874;2023-05-29T05:33:28;58.26;34.56;73.17;;
73638;Laerm;53743;51.100;5.874;2023-05-29T05:34:30;38.52;31.92;51.23;;
73638;Laerm;53743;51.100;5.874;2023-05-29T05:35:32;38.69;31.88;52.07;;
73638;Laerm;53743;51.100;5.874;2023-05-29T05:36:36;56.95;34.34;70.79;;
73638;Laerm;53743;51.100;5.874;2023-05-29T05:37:43;60.88;34.50;74.41;;
73638;Laerm;53743;51.100;5.874;2023-05-29T05:38:46;60.85;33.79;75.14;;
73638;Laerm;53743;51.100;5.874;2023-05-29T05:39:47;61.05;38.98;73.64;;
73638;Laerm;53743;51.100;5.874;2023-05-29T05:40:49;55.89;34.53;70.80;;
73638;Laerm;53743;51.100;5.874;2023-05-29T05:41:57;60.58;36.65;75.67;;
73638;Laerm;53743;51.100;5.874;2023-05-29T05:43:15;54.75;32.81;66.49;;
73638;Laerm;53743;51.100;5.874;2023-05-29T05:44:32;59.19;35.15;73.78;;
73638;Laerm;53743;51.100;5.874;2023-05-29T05:45:40;50.79;33.48;65.52;;
73638;Laerm;53743;51.100;5.874;2023-05-29T05:46:43;38.14;32.08;54.23;;
73638;Laerm;53743;51.100;5.874;2023-05-29T05:47:46;57.08;34.11;68.97;;
73638;Laerm;53743;51.100;5.874;2023-05-29T05:48:48;38.69;32.11;53.67;;
73638;Laerm;53743;51.100;5.874;2023-05-29T05:49:51;59.11;31.46;72.48;;
73638;Laerm;53743;51.100;5.874;2023-05-29T05:50:52;36.27;30.87;48.82;;
73638;Laerm;53743;51.100;5.874;2023-05-29T05:51:55;58.43;34.62;72.31;;
73638;Laerm;53743;51.100;5.874;2023-05-29T05:52:57;62.70;34.44;78.91;;
73638;Laerm;53743;51.100;5.874;2023-05-29T05:53:59;60.66;37.68;74.44;;
73638;Laerm;53743;51.100;5.874;2023-05-29T05:55:01;39.23;32.16;55.50;;
73638;Laerm;53743;51.100;5.874;2023-05-29T05:56:04;62.27;34.95;77.00;;